sensor_id;sensor_type;location;lat;lon;timestamp;temperature;humidity
12817;DHT22;6473;51.552;6.716;2023-06-10T00:01:07;20.20;60.20
12817;DHT22;6473;51.552;6.716;2023-06-10T00:03:40;20.20;62.50
12817;DHT22;6473;51.552;6.716;2023-06-10T00:06:09;20.10;61.20
12817;DHT22;6473;51.552;6.716;2023-06-10T00:08:37;20.10;64.60
12817;DHT22;6473;51.552;6.716;2023-06-10T00:11:45;20.00;62.50
12817;DHT22;6473;51.552;6.716;2023-06-10T00:14:13;20.00;64.70
12817;DHT22;6473;51.552;6.716;2023-06-10T00:16:40;22.30;68.60
12817;DHT22;6473;51.552;6.716;2023-06-10T00:19:11;19.90;67.30
12817;DHT22;6473;51.552;6.716;2023-06-10T00:22:09;19.90;69.30
12817;DHT22;6473;51.552;6.716;2023-06-10T00:24:37;19.90;71.00
12817;DHT22;6473;51.552;6.716;2023-06-10T00:27:05;19.80;72.10
12817;DHT22;6473;51.552;6.716;2023-06-10T00:29:32;19.80;74.70
12817;DHT22;6473;51.552;6.716;2023-06-10T00:31:59;19.80;76.20
12817;DHT22;6473;51.552;6.716;2023-06-10T00:34:26;19.80;76.60
12817;DHT22;6473;51.552;6.716;2023-06-10T00:36:53;19.80;78.90
12817;DHT22;6473;51.552;6.716;2023-06-10T00:39:20;19.70;80.20
12817;DHT22;6473;51.552;6.716;2023-06-10T00:41:48;19.70;81.50
12817;DHT22;6473;51.552;6.716;2023-06-10T00:44:15;19.60;83.40
12817;DHT22;6473;51.552;6.716;2023-06-10T00:46:42;19.60;84.20
12817;DHT22;6473;51.552;6.716;2023-06-10T00:49:09;19.50;84.60
12817;DHT22;6473;51.552;6.716;2023-06-10T00:51:36;19.50;85.60
12817;DHT22;6473;51.552;6.716;2023-06-10T00:54:05;19.40;86.00
12817;DHT22;6473;51.552;6.716;2023-06-10T00:56:33;19.40;89.20
12817;DHT22;6473;51.552;6.716;2023-06-10T00:59:02;19.40;89.50
12817;DHT22;6473;51.552;6.716;2023-06-10T01:01:29;19.40;90.80
12817;DHT22;6473;51.552;6.716;2023-06-10T01:04:00;19.30;91.70
12817;DHT22;6473;51.552;6.716;2023-06-10T01:06:34;19.30;92.60
12817;DHT22;6473;51.552;6.716;2023-06-10T01:09:09;19.40;93.30
12817;DHT22;6473;51.552;6.716;2023-06-10T01:11:45;19.30;92.80
12817;DHT22;6473;51.552;6.716;2023-06-10T01:14:15;19.30;93.80
12817;DHT22;6473;51.552;6.716;2023-06-10T01:16:42;19.30;93.90
12817;DHT22;6473;51.552;6.716;2023-06-10T01:19:11;19.30;94.30
12817;DHT22;6473;51.552;6.716;2023-06-10T01:21:41;19.30;94.20
12817;DHT22;6473;51.552;6.716;2023-06-10T01:24:10;19.30;94.90
12817;DHT22;6473;51.552;6.716;2023-06-10T01:26:39;19.20;95.10
12817;DHT22;6473;51.552;6.716;2023-06-10T01:31:55;19.20;96.10
12817;DHT22;6473;51.552;6.716;2023-06-10T01:34:25;19.20;96.20
12817;DHT22;6473;51.552;6.716;2023-06-10T01:36:56;19.20;96.40
12817;DHT22;6473;51.552;6.716;2023-06-10T01:39:24;19.20;97.00
12817;DHT22;6473;51.552;6.716;2023-06-10T01:41:52;19.10;97.20
12817;DHT22;6473;51.552;6.716;2023-06-10T01:44:19;19.00;97.60
12817;DHT22;6473;51.552;6.716;2023-06-10T01:46:47;19.10;97.60
12817;DHT22;6473;51.552;6.716;2023-06-10T01:49:13;19.10;98.20
12817;DHT22;6473;51.552;6.716;2023-06-10T01:51:43;19.10;98.20
12817;DHT22;6473;51.552;6.716;2023-06-10T01:54:11;19.10;98.80
12817;DHT22;6473;51.552;6.716;2023-06-10T01:56:38;19.20;99.00
12817;DHT22;6473;51.552;6.716;2023-06-10T01:59:05;19.00;99.30
12817;DHT22;6473;51.552;6.716;2023-06-10T02:01:33;19.00;99.70
12817;DHT22;6473;51.552;6.716;2023-06-10T02:04:00;18.90;99.90
12817;DHT22;6473;51.552;6.716;2023-06-10T02:06:26;18.90;99.90
12817;DHT22;6473;51.552;6.716;2023-06-10T02:08:53;19.00;99.90
12817;DHT22;6473;51.552;6.716;2023-06-10T02:11:21;18.90;99.90
12817;DHT22;6473;51.552;6.716;2023-06-10T02:13:48;18.90;99.90
12817;DHT22;6473;51.552;6.716;2023-06-10T02:16:15;18.80;99.90
12817;DHT22;6473;51.552;6.716;2023-06-10T02:18:43;18.80;99.90
12817;DHT22;6473;51.552;6.716;2023-06-10T02:21:11;18.80;99.90
12817;DHT22;6473;51.552;6.716;2023-06-10T02:23:38;18.80;99.90
12817;DHT22;6473;51.552;6.716;2023-06-10T02:26:05;18.70;99.90
12817;DHT22;6473;51.552;6.716;2023-06-10T02:28:34;18.70;99.90
12817;DHT22;6473;51.552;6.716;2023-06-10T02:31:01;18.60;99.90
12817;DHT22;6473;51.552;6.716;2023-06-10T02:33:28;18.60;99.90
12817;DHT22;6473;51.552;6.716;2023-06-10T02:35:55;18.60;99.90
12817;DHT22;6473;51.552;6.716;2023-06-10T02:38:23;18.60;99.90
12817;DHT22;6473;51.552;6.716;2023-06-10T02:40:51;18.60;99.90
12817;DHT22;6473;51.552;6.716;2023-06-10T02:43:17;18.50;99.90
12817;DHT22;6473;51.552;6.716;2023-06-10T02:45:48;18.50;99.90
12817;DHT22;6473;51.552;6.716;2023-06-10T02:48:16;18.50;99.90
12817;DHT22;6473;51.552;6.716;2023-06-10T02:50:42;18.50;99.90
12817;DHT22;6473;51.552;6.716;2023-06-10T02:53:23;18.40;99.90
12817;DHT22;6473;51.552;6.716;2023-06-10T02:55:55;18.40;99.90
12817;DHT22;6473;51.552;6.716;2023-06-10T02:58:22;18.40;99.90
12817;DHT22;6473;51.552;6.716;2023-06-10T03:00:52;18.30;99.90
12817;DHT22;6473;51.552;6.716;2023-06-10T03:03:19;18.20;99.90
12817;DHT22;6473;51.552;6.716;2023-06-10T03:06:01;18.20;99.90
12817;DHT22;6473;51.552;6.716;2023-06-10T03:08:29;18.20;99.90
12817;DHT22;6473;51.552;6.716;2023-06-10T03:10:57;18.10;99.90
12817;DHT22;6473;51.552;6.716;2023-06-10T03:13:24;18.10;99.90
12817;DHT22;6473;51.552;6.716;2023-06-10T03:15:53;18.10;99.90
12817;DHT22;6473;51.552;6.716;2023-06-10T03:18:26;18.10;99.90
12817;DHT22;6473;51.552;6.716;2023-06-10T03:20:53;18.00;99.90
12817;DHT22;6473;51.552;6.716;2023-06-10T03:23:21;18.00;99.90
12817;DHT22;6473;51.552;6.716;2023-06-10T03:25:49;18.00;99.90
12817;DHT22;6473;51.552;6.716;2023-06-10T03:28:18;18.00;99.90
12817;DHT22;6473;51.552;6.716;2023-06-10T03:30:45;17.90;99.90
12817;DHT22;6473;51.552;6.716;2023-06-10T03:33:14;17.90;99.90
12817;DHT22;6473;51.552;6.716;2023-06-10T03:35:42;17.90;99.90
12817;DHT22;6473;51.552;6.716;2023-06-10T03:38:10;17.80;99.90
12817;DHT22;6473;51.552;6.716;2023-06-10T03:40:37;17.90;99.90
12817;DHT22;6473;51.552;6.716;2023-06-10T03:43:05;17.80;99.90
12817;DHT22;6473;51.552;6.716;2023-06-10T03:45:33;17.80;99.90
12817;DHT22;6473;51.552;6.716;2023-06-10T03:48:01;17.70;99.90
12817;DHT22;6473;51.552;6.716;2023-06-10T03:50:38;17.70;99.90
12817;DHT22;6473;51.552;6.716;2023-06-10T03:53:05;17.70;99.90
12817;DHT22;6473;51.552;6.716;2023-06-10T03:55:32;17.70;99.90
12817;DHT22;6473;51.552;6.716;2023-06-10T03:58:00;17.80;99.90
12817;DHT22;6473;51.552;6.716;2023-06-10T04:00:27;17.80;99.90
12817;DHT22;6473;51.552;6.716;2023-06-10T04:02:55;17.80;99.90
12817;DHT22;6473;51.552;6.716;2023-06-10T04:05:31;17.80;99.90
12817;DHT22;6473;51.552;6.716;2023-06-10T04:07:59;17.80;99.90
12817;DHT22;6473;51.552;6.716;2023-06-10T04:10:27;17.90;99.90
12817;DHT22;6473;51.552;6.716;2023-06-10T04:12:54;17.90;99.90
12817;DHT22;6473;51.552;6.716;2023-06-10T04:15:24;17.90;99.90
12817;DHT22;6473;51.552;6.716;2023-06-10T04:17:51;17.90;99.90
12817;DHT22;6473;51.552;6.716;2023-06-10T04:20:21;17.90;99.90
12817;DHT22;6473;51.552;6.716;2023-06-10T04:22:49;17.90;99.90
12817;DHT22;6473;51.552;6.716;2023-06-10T04:25:17;18.00;99.90
12817;DHT22;6473;51.552;6.716;2023-06-10T04:27:45;18.00;99.90
12817;DHT22;6473;51.552;6.716;2023-06-10T04:30:13;18.10;99.90
12817;DHT22;6473;51.552;6.716;2023-06-10T04:32:41;18.00;99.90
12817;DHT22;6473;51.552;6.716;2023-06-10T04:35:14;18.10;99.90
12817;DHT22;6473;51.552;6.716;2023-06-10T04:37:42;18.10;99.90
12817;DHT22;6473;51.552;6.716;2023-06-10T04:40:10;18.10;99.90
12817;DHT22;6473;51.552;6.716;2023-06-10T04:42:38;18.20;99.90
12817;DHT22;6473;51.552;6.716;2023-06-10T04:45:07;18.20;99.60
12817;DHT22;6473;51.552;6.716;2023-06-10T04:47:34;18.20;99.20
12817;DHT22;6473;51.552;6.716;2023-06-10T04:50:01;18.70;99.00
12817;DHT22;6473;51.552;6.716;2023-06-10T04:52:29;18.20;99.10
12817;DHT22;6473;51.552;6.716;2023-06-10T04:54:57;18.30;99.70
12817;DHT22;6473;51.552;6.716;2023-06-10T04:57:24;18.30;99.40
12817;DHT22;6473;51.552;6.716;2023-06-10T04:59:53;18.30;99.50
12817;DHT22;6473;51.552;6.716;2023-06-10T05:02:20;18.40;99.20
12817;DHT22;6473;51.552;6.716;2023-06-10T05:04:46;18.40;98.50
12817;DHT22;6473;51.552;6.716;2023-06-10T05:07:13;18.50;98.90
12817;DHT22;6473;51.552;6.716;2023-06-10T05:09:40;18.50;98.10
12817;DHT22;6473;51.552;6.716;2023-06-10T05:12:08;18.50;97.30
12817;DHT22;6473;51.552;6.716;2023-06-10T05:14:35;18.60;97.70
12817;DHT22;6473;51.552;6.716;2023-06-10T05:17:04;18.60;96.10
12817;DHT22;6473;51.552;6.716;2023-06-10T05:19:31;18.70;96.30
12817;DHT22;6473;51.552;6.716;2023-06-10T05:21:58;18.70;96.00
12817;DHT22;6473;51.552;6.716;2023-06-10T05:24:25;18.70;97.10
12817;DHT22;6473;51.552;6.716;2023-06-10T05:26:52;18.80;95.30
12817;DHT22;6473;51.552;6.716;2023-06-10T05:29:19;18.90;95.20
12817;DHT22;6473;51.552;6.716;2023-06-10T05:31:46;18.90;93.20
12817;DHT22;6473;51.552;6.716;2023-06-10T05:34:14;19.00;92.60
12817;DHT22;6473;51.552;6.716;2023-06-10T05:36:41;19.10;93.50
12817;DHT22;6473;51.552;6.716;2023-06-10T05:39:08;19.30;92.30
12817;DHT22;6473;51.552;6.716;2023-06-10T05:41:35;19.50;90.40
12817;DHT22;6473;51.552;6.716;2023-06-10T05:44:02;19.90;86.80
12817;DHT22;6473;51.552;6.716;2023-06-10T05:46:29;20.30;72.10
12817;DHT22;6473;51.552;6.716;2023-06-10T05:48:56;20.90;63.90
12817;DHT22;6473;51.552;6.716;2023-06-10T05:51:25;21.40;51.70
12817;DHT22;6473;51.552;6.716;2023-06-10T05:53:53;22.00;44.70
12817;DHT22;6473;51.552;6.716;2023-06-10T05:56:19;22.30;25.40
12817;DHT22;6473;51.552;6.716;2023-06-10T05:58:47;22.90;20.50
12817;DHT22;6473;51.552;6.716;2023-06-10T06:01:13;23.50;15.90
12817;DHT22;6473;51.552;6.716;2023-06-10T06:03:40;24.10;4.60
12817;DHT22;6473;51.552;6.716;2023-06-10T06:06:07;24.30;1.00
12817;DHT22;6473;51.552;6.716;2023-06-10T06:08:35;24.30;1.00
12817;DHT22;6473;51.552;6.716;2023-06-10T06:11:02;24.90;1.00
12817;DHT22;6473;51.552;6.716;2023-06-10T06:13:29;25.20;1.00
12817;DHT22;6473;51.552;6.716;2023-06-10T06:15:56;25.40;1.00
12817;DHT22;6473;51.552;6.716;2023-06-10T06:18:23;25.50;1.00
12817;DHT22;6473;51.552;6.716;2023-06-10T06:20:49;25.90;1.00
12817;DHT22;6473;51.552;6.716;2023-06-10T06:23:16;26.10;1.00
12817;DHT22;6473;51.552;6.716;2023-06-10T06:25:44;26.30;1.00
12817;DHT22;6473;51.552;6.716;2023-06-10T06:28:11;26.40;1.00
12817;DHT22;6473;51.552;6.716;2023-06-10T06:30:38;26.60;1.00
12817;DHT22;6473;51.552;6.716;2023-06-10T06:33:05;27.30;1.00
12817;DHT22;6473;51.552;6.716;2023-06-10T06:35:32;27.50;1.00
12817;DHT22;6473;51.552;6.716;2023-06-10T06:37:59;27.60;1.00
12817;DHT22;6473;51.552;6.716;2023-06-10T06:40:28;27.70;1.00
12817;DHT22;6473;51.552;6.716;2023-06-10T06:42:56;27.50;1.00
12817;DHT22;6473;51.552;6.716;2023-06-10T06:46:02;27.30;1.00
12817;DHT22;6473;51.552;6.716;2023-06-10T06:48:29;27.80;1.00
12817;DHT22;6473;51.552;6.716;2023-06-10T06:50:55;28.30;1.00
12817;DHT22;6473;51.552;6.716;2023-06-10T06:53:24;28.30;1.00
12817;DHT22;6473;51.552;6.716;2023-06-10T06:55:51;28.50;1.00
12817;DHT22;6473;51.552;6.716;2023-06-10T06:58:19;28.70;1.00
12817;DHT22;6473;51.552;6.716;2023-06-10T07:00:46;29.20;1.00
12817;DHT22;6473;51.552;6.716;2023-06-10T07:03:13;28.70;1.00
12817;DHT22;6473;51.552;6.716;2023-06-10T07:05:41;28.60;1.00
12817;DHT22;6473;51.552;6.716;2023-06-10T07:08:08;28.90;1.00
12817;DHT22;6473;51.552;6.716;2023-06-10T07:10:34;29.40;1.00
12817;DHT22;6473;51.552;6.716;2023-06-10T07:13:01;29.40;1.00
12817;DHT22;6473;51.552;6.716;2023-06-10T07:15:30;29.50;1.00
12817;DHT22;6473;51.552;6.716;2023-06-10T07:17:58;30.10;1.00
12817;DHT22;6473;51.552;6.716;2023-06-10T07:20:25;30.30;1.00
12817;DHT22;6473;51.552;6.716;2023-06-10T07:22:52;29.10;1.00
12817;DHT22;6473;51.552;6.716;2023-06-10T07:25:19;29.60;1.00
12817;DHT22;6473;51.552;6.716;2023-06-10T07:27:46;29.10;1.00
12817;DHT22;6473;51.552;6.716;2023-06-10T07:30:13;29.60;1.00
12817;DHT22;6473;51.552;6.716;2023-06-10T07:32:42;29.70;1.00
12817;DHT22;6473;51.552;6.716;2023-06-10T07:35:10;30.20;1.00
12817;DHT22;6473;51.552;6.716;2023-06-10T07:37:37;30.50;1.00
12817;DHT22;6473;51.552;6.716;2023-06-10T07:40:05;31.00;1.00
12817;DHT22;6473;51.552;6.716;2023-06-10T07:42:33;31.30;1.00
12817;DHT22;6473;51.552;6.716;2023-06-10T07:45:01;31.00;1.00
12817;DHT22;6473;51.552;6.716;2023-06-10T07:47:28;31.00;1.00
12817;DHT22;6473;51.552;6.716;2023-06-10T07:49:56;31.30;1.00
12817;DHT22;6473;51.552;6.716;2023-06-10T07:52:23;31.20;1.00
12817;DHT22;6473;51.552;6.716;2023-06-10T07:54:51;31.30;1.00
12817;DHT22;6473;51.552;6.716;2023-06-10T07:57:19;31.80;1.00
12817;DHT22;6473;51.552;6.716;2023-06-10T07:59:46;32.20;1.00
12817;DHT22;6473;51.552;6.716;2023-06-10T08:02:13;31.60;1.00
12817;DHT22;6473;51.552;6.716;2023-06-10T08:04:40;31.60;1.00
12817;DHT22;6473;51.552;6.716;2023-06-10T08:07:09;31.80;1.00
12817;DHT22;6473;51.552;6.716;2023-06-10T08:09:36;32.00;1.00
12817;DHT22;6473;51.552;6.716;2023-06-10T08:12:06;32.00;1.00
12817;DHT22;6473;51.552;6.716;2023-06-10T08:14:38;32.00;1.00
12817;DHT22;6473;51.552;6.716;2023-06-10T08:17:06;32.10;1.00
12817;DHT22;6473;51.552;6.716;2023-06-10T08:19:32;32.00;1.00
12817;DHT22;6473;51.552;6.716;2023-06-10T08:22:00;31.60;1.00
12817;DHT22;6473;51.552;6.716;2023-06-10T08:24:28;31.40;1.00
12817;DHT22;6473;51.552;6.716;2023-06-10T08:26:55;31.60;1.00
12817;DHT22;6473;51.552;6.716;2023-06-10T08:29:23;31.70;1.00
12817;DHT22;6473;51.552;6.716;2023-06-10T08:31:50;31.90;1.00
12817;DHT22;6473;51.552;6.716;2023-06-10T08:34:17;32.30;1.00
12817;DHT22;6473;51.552;6.716;2023-06-10T08:36:44;32.20;1.00
12817;DHT22;6473;51.552;6.716;2023-06-10T08:39:12;32.70;1.00
12817;DHT22;6473;51.552;6.716;2023-06-10T08:41:43;32.60;1.00
12817;DHT22;6473;51.552;6.716;2023-06-10T08:44:17;32.80;1.00
12817;DHT22;6473;51.552;6.716;2023-06-10T08:46:49;32.80;1.00
12817;DHT22;6473;51.552;6.716;2023-06-10T08:49:18;32.80;1.00
12817;DHT22;6473;51.552;6.716;2023-06-10T08:51:48;32.60;1.00
12817;DHT22;6473;51.552;6.716;2023-06-10T08:54:22;32.80;1.00
12817;DHT22;6473;51.552;6.716;2023-06-10T08:56:54;32.90;1.00
12817;DHT22;6473;51.552;6.716;2023-06-10T08:59:22;33.40;1.00
12817;DHT22;6473;51.552;6.716;2023-06-10T09:01:50;32.80;1.00
12817;DHT22;6473;51.552;6.716;2023-06-10T09:04:18;33.10;1.00
12817;DHT22;6473;51.552;6.716;2023-06-10T09:06:47;33.20;1.00
12817;DHT22;6473;51.552;6.716;2023-06-10T09:09:15;32.90;1.00
12817;DHT22;6473;51.552;6.716;2023-06-10T09:11:43;32.70;1.00
12817;DHT22;6473;51.552;6.716;2023-06-10T09:14:11;32.60;1.00
12817;DHT22;6473;51.552;6.716;2023-06-10T09:16:38;32.60;1.00
12817;DHT22;6473;51.552;6.716;2023-06-10T09:19:06;32.90;1.00
12817;DHT22;6473;51.552;6.716;2023-06-10T09:21:37;33.30;1.00
12817;DHT22;6473;51.552;6.716;2023-06-10T09:24:05;33.00;1.00
12817;DHT22;6473;51.552;6.716;2023-06-10T09:26:32;33.30;1.00
12817;DHT22;6473;51.552;6.716;2023-06-10T09:29:05;32.80;1.00
12817;DHT22;6473;51.552;6.716;2023-06-10T09:31:36;32.80;1.00
12817;DHT22;6473;51.552;6.716;2023-06-10T09:34:07;33.20;1.00
12817;DHT22;6473;51.552;6.716;2023-06-10T09:36:35;33.20;1.00
12817;DHT22;6473;51.552;6.716;2023-06-10T09:39:03;33.40;1.00
12817;DHT22;6473;51.552;6.716;2023-06-10T09:41:33;34.00;1.00
12817;DHT22;6473;51.552;6.716;2023-06-10T09:44:01;34.20;1.00
12817;DHT22;6473;51.552;6.716;2023-06-10T09:46:31;34.00;1.00
12817;DHT22;6473;51.552;6.716;2023-06-10T09:49:00;34.00;1.00
12817;DHT22;6473;51.552;6.716;2023-06-10T09:51:27;34.20;1.00
12817;DHT22;6473;51.552;6.716;2023-06-10T09:53:55;34.50;1.00
12817;DHT22;6473;51.552;6.716;2023-06-10T09:56:33;34.30;1.00
12817;DHT22;6473;51.552;6.716;2023-06-10T09:59:00;34.20;1.00
12817;DHT22;6473;51.552;6.716;2023-06-10T10:01:27;34.10;1.00
12817;DHT22;6473;51.552;6.716;2023-06-10T10:03:54;34.00;1.00
12817;DHT22;6473;51.552;6.716;2023-06-10T10:06:22;34.00;1.00
12817;DHT22;6473;51.552;6.716;2023-06-10T10:08:50;34.50;1.00
12817;DHT22;6473;51.552;6.716;2023-06-10T10:11:17;34.70;1.00
12817;DHT22;6473;51.552;6.716;2023-06-10T10:13:46;35.10;1.00
12817;DHT22;6473;51.552;6.716;2023-06-10T10:16:16;34.60;1.00
12817;DHT22;6473;51.552;6.716;2023-06-10T10:18:46;34.20;1.00
12817;DHT22;6473;51.552;6.716;2023-06-10T10:21:16;33.40;1.00
12817;DHT22;6473;51.552;6.716;2023-06-10T10:23:52;33.20;1.00
12817;DHT22;6473;51.552;6.716;2023-06-10T10:26:21;33.10;1.00
12817;DHT22;6473;51.552;6.716;2023-06-10T10:28:53;33.20;1.00
12817;DHT22;6473;51.552;6.716;2023-06-10T10:31:23;34.00;1.00
12817;DHT22;6473;51.552;6.716;2023-06-10T10:33:54;34.30;1.00
12817;DHT22;6473;51.552;6.716;2023-06-10T10:36:22;33.40;1.00
12817;DHT22;6473;51.552;6.716;2023-06-10T10:38:51;33.20;1.00
12817;DHT22;6473;51.552;6.716;2023-06-10T10:41:18;34.10;1.00
12817;DHT22;6473;51.552;6.716;2023-06-10T10:43:47;34.60;1.00
12817;DHT22;6473;51.552;6.716;2023-06-10T10:46:16;34.10;1.00
12817;DHT22;6473;51.552;6.716;2023-06-10T10:48:44;34.10;1.00
12817;DHT22;6473;51.552;6.716;2023-06-10T10:51:11;34.20;1.00
12817;DHT22;6473;51.552;6.716;2023-06-10T10:53:38;33.70;1.00
12817;DHT22;6473;51.552;6.716;2023-06-10T10:56:08;34.30;1.00
12817;DHT22;6473;51.552;6.716;2023-06-10T10:58:35;34.00;1.00
12817;DHT22;6473;51.552;6.716;2023-06-10T11:01:10;33.30;1.00
12817;DHT22;6473;51.552;6.716;2023-06-10T11:03:43;34.00;1.00
12817;DHT22;6473;51.552;6.716;2023-06-10T11:06:13;34.00;1.00
12817;DHT22;6473;51.552;6.716;2023-06-10T11:08:49;33.30;1.00
12817;DHT22;6473;51.552;6.716;2023-06-10T11:11:23;31.80;1.00
12817;DHT22;6473;51.552;6.716;2023-06-10T11:14:07;31.80;1.00
12817;DHT22;6473;51.552;6.716;2023-06-10T11:16:42;31.90;1.00
12817;DHT22;6473;51.552;6.716;2023-06-10T11:19:09;32.20;1.00
12817;DHT22;6473;51.552;6.716;2023-06-10T11:21:58;32.20;1.00
12817;DHT22;6473;51.552;6.716;2023-06-10T11:24:26;32.30;1.00
12817;DHT22;6473;51.552;6.716;2023-06-10T11:26:54;32.30;1.00
12817;DHT22;6473;51.552;6.716;2023-06-10T11:29:21;32.30;1.00
12817;DHT22;6473;51.552;6.716;2023-06-10T11:31:50;32.40;1.00
12817;DHT22;6473;51.552;6.716;2023-06-10T11:34:22;32.30;1.00
12817;DHT22;6473;51.552;6.716;2023-06-10T11:36:51;32.40;1.00
12817;DHT22;6473;51.552;6.716;2023-06-10T11:39:20;32.40;1.00
12817;DHT22;6473;51.552;6.716;2023-06-10T11:41:50;31.70;1.00
12817;DHT22;6473;51.552;6.716;2023-06-10T11:44:18;31.10;1.00
12817;DHT22;6473;51.552;6.716;2023-06-10T11:46:47;31.60;1.00
12817;DHT22;6473;51.552;6.716;2023-06-10T11:49:20;32.00;1.00
12817;DHT22;6473;51.552;6.716;2023-06-10T11:51:47;32.30;1.00
12817;DHT22;6473;51.552;6.716;2023-06-10T11:54:17;32.00;1.00
12817;DHT22;6473;51.552;6.716;2023-06-10T11:56:45;32.20;1.00
12817;DHT22;6473;51.552;6.716;2023-06-10T11:59:12;32.40;1.00
12817;DHT22;6473;51.552;6.716;2023-06-10T12:01:44;32.40;1.00
12817;DHT22;6473;51.552;6.716;2023-06-10T12:04:12;32.50;1.00
12817;DHT22;6473;51.552;6.716;2023-06-10T12:06:44;32.50;1.00
12817;DHT22;6473;51.552;6.716;2023-06-10T12:09:18;32.60;1.00
12817;DHT22;6473;51.552;6.716;2023-06-10T12:11:46;32.70;1.00
12817;DHT22;6473;51.552;6.716;2023-06-10T12:14:14;32.50;1.00
12817;DHT22;6473;51.552;6.716;2023-06-10T12:16:49;32.70;1.00
12817;DHT22;6473;51.552;6.716;2023-06-10T12:19:16;32.60;1.00
12817;DHT22;6473;51.552;6.716;2023-06-10T12:21:44;32.70;1.00
12817;DHT22;6473;51.552;6.716;2023-06-10T12:24:11;32.10;1.00
12817;DHT22;6473;51.552;6.716;2023-06-10T12:26:40;31.50;1.00
12817;DHT22;6473;51.552;6.716;2023-06-10T12:29:31;31.30;1.00
12817;DHT22;6473;51.552;6.716;2023-06-10T12:32:01;31.00;1.00
12817;DHT22;6473;51.552;6.716;2023-06-10T12:34:33;31.70;1.00
12817;DHT22;6473;51.552;6.716;2023-06-10T12:37:00;32.10;1.00
12817;DHT22;6473;51.552;6.716;2023-06-10T12:39:27;32.50;1.00
12817;DHT22;6473;51.552;6.716;2023-06-10T12:41:54;32.30;1.00
12817;DHT22;6473;51.552;6.716;2023-06-10T12:44:31;32.10;1.00
12817;DHT22;6473;51.552;6.716;2023-06-10T12:47:00;32.10;1.00
12817;DHT22;6473;51.552;6.716;2023-06-10T12:49:27;31.90;1.00
12817;DHT22;6473;51.552;6.716;2023-06-10T12:51:54;32.00;1.00
12817;DHT22;6473;51.552;6.716;2023-06-10T12:54:22;32.00;1.00
12817;DHT22;6473;51.552;6.716;2023-06-10T12:56:49;31.90;1.00
12817;DHT22;6473;51.552;6.716;2023-06-10T12:59:16;32.20;1.00
12817;DHT22;6473;51.552;6.716;2023-06-10T13:01:43;32.20;1.00
12817;DHT22;6473;51.552;6.716;2023-06-10T13:04:11;32.30;1.00
12817;DHT22;6473;51.552;6.716;2023-06-10T13:06:38;32.20;1.00
12817;DHT22;6473;51.552;6.716;2023-06-10T13:09:06;32.40;1.00
12817;DHT22;6473;51.552;6.716;2023-06-10T13:11:34;32.50;1.00
12817;DHT22;6473;51.552;6.716;2023-06-10T13:14:02;32.20;1.00
12817;DHT22;6473;51.552;6.716;2023-06-10T13:16:30;32.30;1.00
12817;DHT22;6473;51.552;6.716;2023-06-10T13:18:57;32.30;1.00
12817;DHT22;6473;51.552;6.716;2023-06-10T13:21:26;32.10;1.00
12817;DHT22;6473;51.552;6.716;2023-06-10T13:23:53;32.20;1.00
12817;DHT22;6473;51.552;6.716;2023-06-10T13:26:19;31.80;1.00
12817;DHT22;6473;51.552;6.716;2023-06-10T13:28:47;33.20;1.00
12817;DHT22;6473;51.552;6.716;2023-06-10T13:31:14;31.90;1.00
12817;DHT22;6473;51.552;6.716;2023-06-10T13:33:40;31.30;1.00
12817;DHT22;6473;51.552;6.716;2023-06-10T13:36:09;31.20;1.00
12817;DHT22;6473;51.552;6.716;2023-06-10T13:38:37;31.50;1.00
12817;DHT22;6473;51.552;6.716;2023-06-10T13:41:04;32.10;1.00
12817;DHT22;6473;51.552;6.716;2023-06-10T13:43:31;32.00;1.00
12817;DHT22;6473;51.552;6.716;2023-06-10T13:45:58;32.40;1.00
12817;DHT22;6473;51.552;6.716;2023-06-10T13:48:25;32.20;1.00
12817;DHT22;6473;51.552;6.716;2023-06-10T13:50:52;32.10;1.00
12817;DHT22;6473;51.552;6.716;2023-06-10T13:53:19;32.30;1.00
12817;DHT22;6473;51.552;6.716;2023-06-10T13:55:47;32.10;1.00
12817;DHT22;6473;51.552;6.716;2023-06-10T13:58:14;31.70;1.00
12817;DHT22;6473;51.552;6.716;2023-06-10T14:00:41;31.70;1.00
12817;DHT22;6473;51.552;6.716;2023-06-10T14:03:08;31.80;1.00
12817;DHT22;6473;51.552;6.716;2023-06-10T14:05:35;31.90;1.00
12817;DHT22;6473;51.552;6.716;2023-06-10T14:08:01;32.30;1.00
12817;DHT22;6473;51.552;6.716;2023-06-10T14:10:28;32.30;1.00
12817;DHT22;6473;51.552;6.716;2023-06-10T14:12:57;32.30;1.00
12817;DHT22;6473;51.552;6.716;2023-06-10T14:15:23;32.40;1.00
12817;DHT22;6473;51.552;6.716;2023-06-10T14:17:50;32.50;1.00
12817;DHT22;6473;51.552;6.716;2023-06-10T14:20:17;32.60;1.00
12817;DHT22;6473;51.552;6.716;2023-06-10T14:22:44;32.50;1.00
12817;DHT22;6473;51.552;6.716;2023-06-10T14:25:11;32.70;1.00
12817;DHT22;6473;51.552;6.716;2023-06-10T14:27:38;32.50;1.00
12817;DHT22;6473;51.552;6.716;2023-06-10T14:30:07;32.50;1.00
12817;DHT22;6473;51.552;6.716;2023-06-10T14:32:34;32.40;1.00
12817;DHT22;6473;51.552;6.716;2023-06-10T14:35:01;32.40;1.00
12817;DHT22;6473;51.552;6.716;2023-06-10T14:37:28;32.20;1.00
12817;DHT22;6473;51.552;6.716;2023-06-10T14:39:55;32.10;1.00
12817;DHT22;6473;51.552;6.716;2023-06-10T14:42:22;32.30;1.00
12817;DHT22;6473;51.552;6.716;2023-06-10T14:44:49;32.30;1.00
12817;DHT22;6473;51.552;6.716;2023-06-10T14:47:17;32.20;1.00
12817;DHT22;6473;51.552;6.716;2023-06-10T14:49:44;32.10;1.00
12817;DHT22;6473;51.552;6.716;2023-06-10T14:52:11;32.30;1.00
12817;DHT22;6473;51.552;6.716;2023-06-10T14:54:38;32.20;1.00
12817;DHT22;6473;51.552;6.716;2023-06-10T14:57:05;32.30;1.00
12817;DHT22;6473;51.552;6.716;2023-06-10T14:59:32;32.20;1.00
12817;DHT22;6473;51.552;6.716;2023-06-10T15:02:00;31.60;1.00
12817;DHT22;6473;51.552;6.716;2023-06-10T15:04:28;31.50;1.00
12817;DHT22;6473;51.552;6.716;2023-06-10T15:06:55;31.60;1.00
12817;DHT22;6473;51.552;6.716;2023-06-10T15:09:22;31.60;1.00
12817;DHT22;6473;51.552;6.716;2023-06-10T15:11:49;31.70;1.00
12817;DHT22;6473;51.552;6.716;2023-06-10T15:14:18;31.50;1.00
12817;DHT22;6473;51.552;6.716;2023-06-10T15:16:45;31.50;1.00
12817;DHT22;6473;51.552;6.716;2023-06-10T15:19:11;31.50;1.00
12817;DHT22;6473;51.552;6.716;2023-06-10T15:21:40;31.40;1.00
12817;DHT22;6473;51.552;6.716;2023-06-10T15:24:07;31.30;1.00
12817;DHT22;6473;51.552;6.716;2023-06-10T15:26:34;31.40;1.00
12817;DHT22;6473;51.552;6.716;2023-06-10T15:29:01;31.60;1.00
12817;DHT22;6473;51.552;6.716;2023-06-10T15:31:30;31.40;1.00
12817;DHT22;6473;51.552;6.716;2023-06-10T15:33:57;31.40;1.00
12817;DHT22;6473;51.552;6.716;2023-06-10T15:36:24;31.40;1.00
12817;DHT22;6473;51.552;6.716;2023-06-10T15:38:53;31.40;1.00
12817;DHT22;6473;51.552;6.716;2023-06-10T15:41:20;31.10;1.00
12817;DHT22;6473;51.552;6.716;2023-06-10T15:43:47;31.10;1.00
12817;DHT22;6473;51.552;6.716;2023-06-10T15:46:14;30.90;1.00
12817;DHT22;6473;51.552;6.716;2023-06-10T15:48:41;31.00;1.00
12817;DHT22;6473;51.552;6.716;2023-06-10T15:51:08;31.10;1.00
12817;DHT22;6473;51.552;6.716;2023-06-10T15:53:34;31.00;1.00
12817;DHT22;6473;51.552;6.716;2023-06-10T15:56:03;30.80;1.00
12817;DHT22;6473;51.552;6.716;2023-06-10T15:58:30;30.90;1.00
12817;DHT22;6473;51.552;6.716;2023-06-10T16:00:57;30.70;1.00
12817;DHT22;6473;51.552;6.716;2023-06-10T16:03:24;30.90;1.00
12817;DHT22;6473;51.552;6.716;2023-06-10T16:05:51;30.90;1.00